Alaska, Minnesota
Current Conditions -  °F | °C
As of 2:32 PM on Tuesday 25 Nov 2014 (Local Time) from KBJI Reporting Station
Overcast Overcast  
Wind Chill: 14°   Ceiling: 1700
Heat Index: 20°   Visibility: 10mi
Dew Point: 10°   Wind: 5mph
Humidity: 65%   Direction: 160°SSE
Pressure: 29.9"   Gusts: NA
Location:  47.7369°N, 94.9947°W
Report Text: KBJI 252032Z AUTO 16004KT 10SM OVC017 M06/M12 A2990 RMK AO2 T10641120
Loading
Personal Weather Stations






























Interactive Weather Map New forecast layout! Learn more

10-Day Weather Forecast

Advertisements
Track Severe Weather on mobile